Time;durP1;ratioP1;P1;durP2;ratioP2;P2;SDS_P1;SDS_P2;PMS_P1;PMS_P2;Temp;Humidity;BMP_temperature;BMP_pressure;BME280_temperature;BME280_humidity;BME280_pressure;Samples;Min_cycle;Max_cycle;Signal;HPM_P1;HPM_P2
2022/12/02 00:01:48;;;;;;;8.68;7.88;;;;;;;2.36;100.00;101606.88;5023872;28;20029;-74
2022/12/02 00:04:24;;;;;;;9.45;8.55;;;;;;;2.37;100.00;101605.16;5025745;28;20056;-74
2022/12/02 00:06:52;;;;;;;8.75;7.90;;;;;;;2.35;100.00;101599.84;5020505;28;20041;-74
2022/12/02 00:09:32;;;;;;;8.77;7.97;;;;;;;2.30;100.00;101603.09;5023285;28;20033;-74
2022/12/02 00:11:58;;;;;;;8.68;7.88;;;;;;;2.30;100.00;101608.28;5022336;28;20048;-74
2022/12/02 00:14:29;;;;;;;8.15;7.35;;;;;;;2.34;100.00;101600.69;5020430;28;20121;-74
2022/12/02 00:16:55;;;;;;;8.30;7.50;;;;;;;2.34;100.00;101605.00;5020122;28;20092;-74
2022/12/02 00:19:22;;;;;;;7.75;7.05;;;;;;;2.33;100.00;101592.78;5022295;28;20029;-74
2022/12/02 00:21:49;;;;;;;7.78;7.07;;;;;;;2.25;100.00;101582.03;5022923;28;20444;-74
2022/12/02 00:24:15;;;;;;;7.28;6.60;;;;;;;2.18;100.00;101580.88;5020699;28;20042;-74
2022/12/02 00:26:40;;;;;;;7.65;6.85;;;;;;;2.16;100.00;101584.25;5022804;28;20069;-74
2022/12/02 00:29:06;;;;;;;7.20;6.45;;;;;;;2.14;100.00;101580.66;5018612;28;20045;-74
2022/12/02 00:31:32;;;;;;;6.45;5.85;;;;;;;2.15;100.00;101577.25;5022546;28;20033;-73
2022/12/02 00:33:59;;;;;;;6.88;6.28;;;;;;;2.16;100.00;101579.91;5023307;28;20034;-74
2022/12/02 00:36:25;;;;;;;7.20;6.55;;;;;;;2.17;100.00;101576.50;5003964;28;20748;-74
2022/12/02 00:38:50;;;;;;;6.90;6.30;;;;;;;2.19;100.00;101569.63;5005847;28;20087;-73
2022/12/02 00:41:16;;;;;;;7.80;7.10;;;;;;;2.22;100.00;101578.41;5018504;28;20030;-73
2022/12/02 00:46:31;;;;;;;7.43;6.72;;;;;;;2.13;100.00;101576.31;5021225;28;20033;-73
2022/12/02 00:48:57;;;;;;;6.75;6.15;;;;;;;2.18;100.00;101572.19;5020484;28;20061;-74
2022/12/02 00:51:24;;;;;;;7.07;6.38;;;;;;;2.24;100.00;101568.97;5021339;28;20099;-74
2022/12/02 00:53:51;;;;;;;7.43;6.72;;;;;;;2.27;100.00;101561.28;5021116;28;20436;-74
2022/12/02 00:56:17;;;;;;;6.93;6.32;;;;;;;2.23;100.00;101561.94;5001731;28;20069;-74
2022/12/02 00:58:43;;;;;;;7.00;6.40;;;;;;;2.24;100.00;101572.44;5021622;28;20116;-74
2022/12/02 01:01:08;;;;;;;6.60;6.00;;;;;;;2.23;100.00;101560.25;5025370;28;20033;-74
2022/12/02 01:03:35;;;;;;;6.65;6.05;;;;;;;2.22;100.00;101560.19;5011491;28;20033;-74
2022/12/02 01:06:00;;;;;;;6.57;5.95;;;;;;;2.26;100.00;101557.78;5019551;28;20134;-74
2022/12/02 01:08:26;;;;;;;7.47;6.78;;;;;;;2.17;100.00;101555.69;5022836;28;20029;-74
2022/12/02 01:10:53;;;;;;;6.07;5.50;;;;;;;2.20;100.00;101554.88;5019829;28;20041;-74
2022/12/02 01:13:19;;;;;;;5.45;4.95;;;;;;;2.17;100.00;101554.75;5019575;28;20030;-74
2022/12/02 01:15:45;;;;;;;6.85;6.18;;;;;;;2.20;100.00;101554.88;5021544;28;20030;-74
2022/12/02 01:18:11;;;;;;;6.82;6.22;;;;;;;2.22;100.00;101557.56;5016272;28;20113;-74
2022/12/02 01:20:36;;;;;;;5.95;5.45;;;;;;;2.22;100.00;101557.56;5019998;28;20043;-74
2022/12/02 01:23:01;;;;;;;6.75;6.15;;;;;;;2.21;100.00;101558.41;5026704;28;20033;-74
2022/12/02 01:25:27;;;;;;;6.30;5.70;;;;;;;2.21;100.00;101551.47;5023034;28;20037;-74
2022/12/02 01:27:52;;;;;;;6.38;5.78;;;;;;;2.25;100.00;101552.50;5026429;28;20076;-74
2022/12/02 01:30:18;;;;;;;5.85;5.35;;;;;;;2.22;100.00;101550.66;5022288;28;20034;-74
2022/12/02 01:32:43;;;;;;;6.68;6.07;;;;;;;2.21;100.00;101545.38;5024115;28;20112;-75
2022/12/02 01:35:09;;;;;;;6.63;6.03;;;;;;;2.25;100.00;101550.78;5026716;28;20467;-74
2022/12/02 01:37:34;;;;;;;5.65;5.15;;;;;;;2.27;100.00;101540.44;5023840;28;20165;-73
2022/12/02 01:40:00;;;;;;;6.10;5.60;;;;;;;2.29;100.00;101544.00;5025697;28;20045;-73
2022/12/02 01:42:25;;;;;;;6.40;5.80;;;;;;;2.30;100.00;101550.97;5022906;28;20033;-73
2022/12/02 01:44:51;;;;;;;5.68;5.18;;;;;;;2.32;100.00;101541.53;5026519;28;20435;-74
2022/12/02 01:47:16;;;;;;;6.32;5.72;;;;;;;2.34;100.00;101550.31;5023961;28;20061;-74
2022/12/02 01:49:42;;;;;;;6.20;5.60;;;;;;;2.35;100.00;101549.47;5024102;28;20037;-73
2022/12/02 01:52:07;;;;;;;5.95;5.35;;;;;;;2.41;100.00;101545.44;5024147;28;20052;-74
2022/12/02 01:54:34;;;;;;;5.78;5.28;;;;;;;2.47;100.00;101539.59;5023804;28;20041;-74
2022/12/02 01:57:00;;;;;;;5.95;5.40;;;;;;;2.48;100.00;101541.34;5022277;28;20041;-73
2022/12/02 01:59:25;;;;;;;5.63;5.13;;;;;;;2.46;100.00;101537.78;5025723;28;20444;-74
2022/12/02 02:01:51;;;;;;;5.72;5.22;;;;;;;2.48;100.00;101541.34;5023104;28;20602;-74
2022/12/02 02:04:17;;;;;;;5.95;5.40;;;;;;;2.52;100.00;101543.28;5028352;28;20030;-74
2022/12/02 02:06:45;;;;;;;5.88;5.38;;;;;;;2.60;100.00;101547.09;4995077;28;20504;-74
2022/12/02 02:09:12;;;;;;;5.53;5.03;;;;;;;2.64;100.00;101545.50;5021314;28;20037;-74
2022/12/02 02:11:40;;;;;;;4.90;4.47;;;;;;;2.74;100.00;101538.97;5021187;28;20042;-74
2022/12/02 02:14:08;;;;;;;7.63;6.93;;;;;;;2.78;100.00;101531.34;5024604;28;20036;-74
2022/12/02 02:16:36;;;;;;;7.50;6.80;;;;;;;2.78;100.00;101535.69;5025675;28;20034;-74
2022/12/02 02:19:04;;;;;;;7.38;6.70;;;;;;;2.77;100.00;101532.16;5022669;28;20488;-74
2022/12/02 02:21:38;;;;;;;7.40;6.75;;;;;;;2.80;100.00;101539.22;5016779;28;20025;-74
2022/12/02 02:24:03;;;;;;;7.72;7.03;;;;;;;2.78;100.00;101541.78;5029157;28;20501;-74
2022/12/02 02:26:31;;;;;;;8.35;7.63;;;;;;;2.77;100.00;101539.97;5004749;28;20069;-74
2022/12/02 02:28:57;;;;;;;7.88;7.18;;;;;;;2.73;100.00;101543.28;5020120;28;20034;-74
2022/12/02 02:31:22;;;;;;;7.63;7.03;;;;;;;2.67;100.00;101537.81;5032589;28;20026;-74
2022/12/02 02:33:48;;;;;;;6.88;6.28;;;;;;;2.69;100.00;101543.09;5013637;28;20056;-74
2022/12/02 02:36:15;;;;;;;7.72;7.03;;;;;;;2.70;100.00;101534.44;5022722;28;20149;-74
2022/12/02 02:38:40;;;;;;;6.95;6.35;;;;;;;2.68;100.00;101536.13;5027858;28;20057;-74
2022/12/02 02:41:07;;;;;;;6.93;6.32;;;;;;;2.58;100.00;101537.44;5004885;28;20044;-74
2022/12/02 02:43:34;;;;;;;7.10;6.40;;;;;;;2.58;100.00;101532.22;5019977;28;20059;-74
2022/12/02 02:46:00;;;;;;;7.32;6.63;;;;;;;2.55;100.00;101535.59;5009023;28;20083;-74
2022/12/02 02:48:33;;;;;;;7.28;6.68;;;;;;;2.56;100.00;101536.47;5005506;28;20060;-74
2022/12/02 02:50:59;;;;;;;6.18;5.57;;;;;;;2.63;100.00;101534.19;5022767;28;20076;-73
2022/12/02 02:53:25;;;;;;;6.65;6.05;;;;;;;2.63;100.00;101531.59;5004076;28;20042;-74
2022/12/02 02:55:53;;;;;;;6.35;5.75;;;;;;;2.68;100.00;101530.91;5023352;28;20404;-75
2022/12/02 02:58:25;;;;;;;6.40;5.80;;;;;;;2.63;100.00;101525.50;5016145;28;20048;-75
2022/12/02 03:00:56;;;;;;;6.50;5.90;;;;;;;2.61;100.00;101525.41;5005995;28;20109;-74
2022/12/02 03:03:26;;;;;;;6.18;5.57;;;;;;;2.65;100.00;101521.25;5027166;28;20403;-74
2022/12/02 03:05:53;;;;;;;5.75;5.25;;;;;;;2.62;100.00;101515.91;5015138;28;20025;-74
2022/12/02 03:08:21;;;;;;;6.72;6.13;;;;;;;2.59;100.00;101514.06;5007335;28;20392;-74
2022/12/02 03:10:46;;;;;;;6.85;6.20;;;;;;;2.59;100.00;101513.13;5026112;28;20041;-74
2022/12/02 03:13:12;;;;;;;6.90;6.30;;;;;;;2.57;100.00;101518.31;5003487;28;20061;-74
2022/12/02 03:15:37;;;;;;;6.97;6.05;;;;;;;2.66;100.00;101509.09;5027491;28;20140;-74
2022/12/02 03:18:03;;;;;;;6.65;6.05;;;;;;;2.72;100.00;101514.53;5021759;28;20069;-74
2022/12/02 03:20:28;;;;;;;6.53;5.93;;;;;;;2.71;100.00;101503.22;5023184;28;20029;-74
2022/12/02 03:22:54;;;;;;;6.05;5.45;;;;;;;2.66;100.00;101511.69;5023006;28;20032;-74
2022/12/02 03:25:19;;;;;;;6.25;5.65;;;;;;;2.67;100.00;101510.84;5023219;28;20428;-74
2022/12/02 03:27:45;;;;;;;6.05;5.55;;;;;;;2.72;100.00;101506.72;5021010;28;20386;-74
2022/12/02 03:30:11;;;;;;;7.20;5.63;;;;;;;2.71;100.00;101497.13;5023887;28;20634;-74
2022/12/02 03:32:37;;;;;;;6.60;6.00;;;;;;;2.67;100.00;101492.63;5021255;28;20092;-74
2022/12/02 03:35:03;;;;;;;6.68;6.07;;;;;;;2.68;100.00;101489.19;5025070;28;20644;-74
2022/12/02 03:37:29;;;;;;;6.15;5.55;;;;;;;2.69;100.00;101493.56;5021713;28;20044;-74
2022/12/02 03:39:54;;;;;;;6.05;5.45;;;;;;;2.64;100.00;101494.25;5023219;28;20108;-74
2022/12/02 03:42:20;;;;;;;5.35;4.85;;;;;;;2.72;100.00;101493.69;5023583;28;20084;-74
2022/12/02 03:44:45;;;;;;;5.97;5.07;;;;;;;2.79;99.84;101495.72;5018653;28;20034;-74
2022/12/02 03:47:11;;;;;;;6.10;5.50;;;;;;;2.74;98.59;101492.03;5026809;28;20553;-74
2022/12/02 03:49:37;;;;;;;6.03;5.53;;;;;;;2.71;98.52;101495.41;5022569;28;20041;-74
2022/12/02 03:52:03;;;;;;;5.85;5.35;;;;;;;2.74;98.55;101492.03;5026938;28;20421;-74
2022/12/02 03:54:29;;;;;;;5.20;4.70;;;;;;;2.80;98.99;101497.50;5025569;28;20061;-74
2022/12/02 03:56:54;;;;;;;5.10;4.63;;;;;;;2.88;98.53;101497.81;5020194;28;20057;-74
2022/12/02 03:59:22;;;;;;;5.72;5.22;;;;;;;2.92;98.79;101503.22;5025713;28;20036;-74
2022/12/02 04:01:47;;;;;;;5.47;4.97;;;;;;;2.98;98.07;101500.84;5024785;28;20087;-74
2022/12/02 04:04:12;;;;;;;5.00;4.50;;;;;;;3.00;98.17;101487.88;5024568;28;20373;-74
2022/12/02 04:06:38;;;;;;;5.13;4.63;;;;;;;2.97;98.16;101486.03;5021254;28;20033;-74
2022/12/02 04:09:04;;;;;;;5.50;4.85;;;;;;;2.94;98.13;101485.94;5022658;28;20045;-74
2022/12/02 04:11:29;;;;;;;5.43;4.93;;;;;;;2.91;98.49;101485.81;5020323;28;20132;-74
2022/12/02 04:13:54;;;;;;;6.10;5.60;;;;;;;2.84;99.08;101483.78;5023538;28;20080;-74
2022/12/02 04:16:20;;;;;;;5.43;4.93;;;;;;;2.84;98.62;101483.78;5022470;28;20385;-75
2022/12/02 04:18:45;;;;;;;6.45;5.43;;;;;;;2.86;98.22;101484.72;5020997;28;20030;-74
2022/12/02 04:21:10;;;;;;;5.15;4.65;;;;;;;2.95;98.57;101481.59;5021636;28;20037;-74
2022/12/02 04:23:36;;;;;;;5.80;5.30;;;;;;;2.92;97.63;101482.34;5021964;28;20045;-74
2022/12/02 04:26:02;;;;;;;5.05;4.55;;;;;;;2.97;97.89;101480.81;5020023;28;20036;-74
2022/12/02 04:28:27;;;;;;;5.10;4.60;;;;;;;2.98;97.53;101481.72;5023038;28;20399;-74
2022/12/02 04:30:52;;;;;;;5.47;4.97;;;;;;;3.00;97.46;101486.16;5020100;28;20084;-74
2022/12/02 04:33:18;;;;;;;5.63;5.13;;;;;;;3.02;97.81;101476.69;5025888;28;20044;-74
2022/12/02 04:35:43;;;;;;;5.63;5.13;;;;;;;2.96;97.81;101467.72;5021321;28;20041;-74
2022/12/02 04:38:08;;;;;;;5.55;5.05;;;;;;;2.97;98.08;101470.41;5024443;28;20063;-74
2022/12/02 04:40:34;;;;;;;6.10;5.50;;;;;;;3.02;97.76;101467.97;5027581;28;20072;-74
2022/12/02 04:42:59;;;;;;;5.50;5.00;;;;;;;3.03;97.99;101475.84;5023431;28;20074;-74
2022/12/02 04:45:24;;;;;;;5.80;5.30;;;;;;;3.01;96.89;101466.19;5022092;28;20103;-74
2022/12/02 04:47:50;;;;;;;5.55;5.05;;;;;;;2.99;97.43;101465.25;5027398;28;20060;-74
2022/12/02 04:50:15;;;;;;;5.00;4.60;;;;;;;2.94;96.63;101465.06;5021920;28;20038;-74
2022/12/02 04:52:40;;;;;;;5.05;4.63;;;;;;;2.95;96.85;101472.03;5021399;28;20048;-74
2022/12/02 04:55:06;;;;;;;4.57;4.18;;;;;;;3.00;96.99;101469.63;5023149;28;20054;-74
2022/12/02 04:57:32;;;;;;;4.80;4.40;;;;;;;2.93;95.48;101468.47;5022966;28;20064;-74
2022/12/02 04:59:57;;;;;;;4.97;4.50;;;;;;;2.96;96.26;101467.72;5026852;28;20115;-74
2022/12/02 05:02:22;;;;;;;5.05;4.28;;;;;;;3.00;96.38;101467.91;5023575;28;20507;-74
2022/12/02 05:04:48;;;;;;;5.43;4.93;;;;;;;3.04;95.67;101461.09;5033575;28;20037;-75
2022/12/02 05:07:13;;;;;;;4.45;4.05;;;;;;;3.10;95.62;101465.69;5025653;28;20046;-75
2022/12/02 05:09:38;;;;;;;4.55;4.15;;;;;;;3.02;95.02;101468.88;5024998;28;20059;-74
2022/12/02 05:12:04;;;;;;;4.72;4.32;;;;;;;2.89;94.59;101455.28;5025679;28;20123;-75
2022/12/02 05:14:29;;;;;;;4.20;3.80;;;;;;;2.89;95.48;101466.59;5024059;28;20119;-74
2022/12/02 05:16:54;;;;;;;4.43;4.03;;;;;;;2.82;95.62;101461.97;5032437;28;20044;-74
2022/12/02 05:19:20;;;;;;;6.93;6.32;;;;;;;2.85;95.63;101460.34;5026438;28;20042;-74
2022/12/02 05:21:45;;;;;;;4.18;3.78;;;;;;;2.91;95.55;101461.44;5025632;28;20116;-75
2022/12/02 05:24:11;;;;;;;4.20;3.80;;;;;;;2.85;95.01;101451.66;5024522;28;20077;-74
2022/12/02 05:26:36;;;;;;;4.00;3.60;;;;;;;2.88;94.78;101454.38;5023698;28;20065;-74
2022/12/02 05:29:02;;;;;;;8.15;7.45;;;;;;;2.90;94.39;101457.94;5005713;28;20092;-74
2022/12/02 05:31:28;;;;;;;7.78;7.07;;;;;;;2.81;94.43;101453.25;5025114;28;20060;-74
2022/12/02 05:33:53;;;;;;;8.40;7.60;;;;;;;2.78;94.32;101454.88;5033538;28;20471;-74
2022/12/02 05:36:18;;;;;;;8.52;7.72;;;;;;;2.71;94.56;101460.66;5025564;28;20033;-74
2022/12/02 05:38:43;;;;;;;8.43;7.65;;;;;;;2.73;94.77;101451.19;5026472;28;20068;-74
2022/12/02 05:41:09;;;;;;;8.27;7.47;;;;;;;2.79;94.37;101459.22;5024400;28;20042;-74
2022/12/02 05:43:39;;;;;;;8.10;7.40;;;;;;;2.82;94.23;101459.34;5026358;28;20044;-74
2022/12/02 05:46:12;;;;;;;7.70;7.00;;;;;;;2.80;93.93;101461.00;5030642;28;20036;-74
2022/12/02 05:48:37;;;;;;;6.88;6.20;;;;;;;2.83;94.08;101461.16;5030296;28;20045;-74
2022/12/02 05:51:08;;;;;;;7.10;6.47;;;;;;;2.85;93.97;101465.56;5032308;28;20025;-74
2022/12/02 05:53:34;;;;;;;7.55;6.85;;;;;;;2.83;93.47;101463.75;5032402;28;20030;-74
2022/12/02 05:56:00;;;;;;;6.82;6.22;;;;;;;2.82;93.79;101464.56;5031495;28;20519;-74
2022/12/02 05:58:26;;;;;;;6.85;6.25;;;;;;;2.80;93.50;101477.56;5007558;28;20052;-74
2022/12/02 06:00:57;;;;;;;8.82;7.93;;;;;;;2.81;93.16;101474.13;5031004;28;20488;-74
2022/12/02 06:03:23;;;;;;;9.55;8.60;;;;;;;2.83;93.79;101469.84;5034900;28;20033;-74
2022/12/02 06:05:52;;;;;;;8.13;7.43;;;;;;;2.89;93.98;101476.16;5030224;28;20552;-75
2022/12/02 06:08:32;;;;;;;9.52;8.63;;;;;;;2.98;93.98;101474.78;5026706;28;20050;-74
2022/12/02 06:11:04;;;;;;;8.35;7.55;;;;;;;2.91;93.07;101474.47;5028612;28;20037;-74
2022/12/02 06:13:35;;;;;;;7.18;6.47;;;;;;;2.91;94.17;101475.38;5021743;28;20069;-75
2022/12/02 06:16:06;;;;;;;7.82;7.13;;;;;;;2.92;93.63;101477.16;5030486;28;20116;-75
2022/12/02 06:18:34;;;;;;;6.85;6.22;;;;;;;2.94;93.97;101475.50;5025217;28;20483;-74
2022/12/02 06:21:09;;;;;;;6.75;6.13;;;;;;;3.01;93.63;101477.53;5020819;28;20038;-74
2022/12/02 06:23:40;;;;;;;7.90;6.55;;;;;;;3.02;93.36;101484.50;5021189;28;20084;-75
2022/12/02 06:26:05;;;;;;;6.90;6.20;;;;;;;3.03;93.61;101480.19;5022860;28;20057;-75
2022/12/02 06:28:36;;;;;;;6.35;5.75;;;;;;;3.04;93.51;101476.75;5028340;28;20063;-74
2022/12/02 06:31:19;;;;;;;6.90;6.20;;;;;;;3.00;93.26;101478.34;5024642;28;20071;-74
2022/12/02 06:33:46;;;;;;;;;;;;;;;2.99;93.73;101480.91;5008375;28;20500;-74
2022/12/02 06:36:21;;;;;;;7.03;6.32;;;;;;;2.97;94.20;101479.94;5023637;28;19954;-74
2022/12/02 06:38:55;;;;;;;7.05;6.35;;;;;;;2.93;95.06;101489.34;5003083;28;20473;-74
2022/12/02 06:41:23;;;;;;;6.28;5.68;;;;;;;2.90;95.26;101493.56;5022328;28;20036;-75
2022/12/02 06:46:34;;;;;;;7.90;7.10;;;;;;;2.89;96.16;101497.00;5024387;28;20038;-74
2022/12/02 06:49:24;;;;;;;6.70;6.10;;;;;;;2.81;96.70;101494.97;5024085;28;20053;-74
2022/12/02 06:51:57;;;;;;;7.25;6.55;;;;;;;2.73;98.03;101487.66;5024029;28;20030;-75
2022/12/02 06:54:27;;;;;;;6.55;5.95;;;;;;;2.71;98.19;101497.13;5026634;28;20041;-74
2022/12/02 06:56:55;;;;;;;7.05;6.35;;;;;;;2.72;97.84;101493.69;5028487;28;20144;-74
2022/12/02 06:59:22;;;;;;;7.82;7.13;;;;;;;2.69;97.65;101490.97;5024618;28;20030;-74
2022/12/02 07:01:47;;;;;;;6.70;6.10;;;;;;;2.64;97.83;101485.56;5020519;28;20037;-75
2022/12/02 07:04:39;;;;;;;6.93;6.32;;;;;;;2.61;98.62;101491.53;5027465;28;20038;-74
2022/12/02 07:07:19;;;;;;;6.60;6.00;;;;;;;2.63;98.44;101489.88;5007152;28;20132;-74
2022/12/02 07:09:47;;;;;;;7.70;7.00;;;;;;;2.59;98.79;101488.00;5021170;28;20120;-74
2022/12/02 07:12:23;;;;;;;10.05;9.15;;;;;;;2.59;99.04;101487.06;5021107;28;20042;-74
2022/12/02 07:14:51;;;;;;;8.07;7.28;;;;;;;2.56;99.02;101482.63;5025525;28;20068;-74
2022/12/02 07:17:36;;;;;;;7.30;6.60;;;;;;;2.54;99.21;101473.88;5024611;28;20038;-74
2022/12/02 07:20:10;;;;;;;7.78;7.05;;;;;;;2.53;99.70;101473.81;5022572;28;20037;-74
2022/12/02 07:22:53;;;;;;;7.75;7.05;;;;;;;2.43;100.00;101485.56;5021142;28;20412;-75
2022/12/02 07:25:30;;;;;;;7.72;7.03;;;;;;;2.45;100.00;101478.69;5023611;28;20033;-74
2022/12/02 07:27:56;;;;;;;8.52;7.72;;;;;;;2.43;100.00;101477.72;5027712;28;20037;-75
2022/12/02 07:30:35;;;;;;;7.70;6.95;;;;;;;2.42;100.00;101474.25;5024278;28;20117;-74
2022/12/02 07:33:00;;;;;;;6.65;6.05;;;;;;;2.36;100.00;101483.53;5025301;28;20749;-74
2022/12/02 07:35:26;;;;;;;5.95;5.35;;;;;;;2.37;100.00;101482.69;5024031;28;20096;-75
2022/12/02 07:37:52;;;;;;;5.90;5.40;;;;;;;2.38;100.00;101489.69;5026611;28;20106;-75
2022/12/02 07:40:18;;;;;;;6.85;6.25;;;;;;;2.37;100.00;101485.31;5014386;28;20052;-74
2022/12/02 07:42:44;;;;;;;13.05;11.85;;;;;;;2.39;100.00;101489.75;5020370;28;20400;-74
2022/12/02 07:45:11;;;;;;;12.20;11.00;;;;;;;2.40;100.00;101488.03;5023271;28;20518;-75
2022/12/02 07:47:36;;;;;;;12.18;10.93;;;;;;;2.45;100.00;101489.13;5021286;28;20404;-74
2022/12/02 07:50:03;;;;;;;9.88;8.95;;;;;;;2.48;100.00;101491.84;5027716;28;20037;-74
2022/12/02 07:52:28;;;;;;;6.80;6.20;;;;;;;2.44;100.00;101489.03;5006204;28;20025;-74
2022/12/02 07:54:53;;;;;;;6.75;6.07;;;;;;;2.42;100.00;101499.41;5022137;28;20045;-74
2022/12/02 07:57:19;;;;;;;9.60;8.70;;;;;;;2.44;100.00;101496.84;5025851;28;20057;-74
2022/12/02 07:59:45;;;;;;;9.73;8.82;;;;;;;2.46;100.00;101493.50;5026769;28;20472;-74
2022/12/02 08:02:10;;;;;;;10.20;9.20;;;;;;;2.42;100.00;101499.41;5026136;28;20092;-75
2022/12/02 08:04:35;;;;;;;10.00;9.00;;;;;;;2.41;100.00;101493.31;5027612;28;20510;-74
2022/12/02 08:07:01;;;;;;;11.30;10.20;;;;;;;2.43;100.00;101506.41;5025104;28;21246;-74
2022/12/02 08:09:26;;;;;;;8.85;7.97;;;;;;;2.40;100.00;101501.06;5024052;28;20570;-74
2022/12/02 08:11:51;;;;;;;8.82;7.95;;;;;;;2.39;100.00;101500.19;5019896;28;20403;-74
2022/12/02 08:14:17;;;;;;;9.80;8.85;;;;;;;2.42;100.00;101499.41;5030343;28;20415;-74
2022/12/02 08:16:42;;;;;;;10.82;9.82;;;;;;;2.42;100.00;101499.41;5017810;28;20108;-74
2022/12/02 08:19:07;;;;;;;9.00;8.20;;;;;;;2.43;100.00;101498.56;5026822;28;20411;-74
2022/12/02 08:21:33;;;;;;;9.35;8.45;;;;;;;2.46;100.00;101496.09;5023679;28;20128;-74
2022/12/02 08:23:59;;;;;;;9.38;8.48;;;;;;;2.47;100.00;101492.69;5020833;28;20117;-74
2022/12/02 08:26:24;;;;;;;9.35;8.38;;;;;;;2.51;100.00;101491.97;5009885;28;20440;-75
2022/12/02 08:28:49;;;;;;;8.57;7.78;;;;;;;2.52;100.00;101493.78;5031236;28;20112;-74
2022/12/02 08:31:15;;;;;;;9.45;8.48;;;;;;;2.53;100.00;101487.72;5024067;28;20064;-74
2022/12/02 08:33:40;;;;;;;233.07;211.60;;;;;;;2.52;100.00;101482.47;5025068;28;20067;-74
2022/12/02 08:36:06;;;;;;;199.48;181.93;;;;;;;2.54;100.00;101479.09;5020648;28;20404;-74
2022/12/02 08:38:31;;;;;;;25.63;16.42;;;;;;;2.57;100.00;101475.72;5023349;28;20029;-75
2022/12/02 08:40:57;;;;;;;26.52;17.90;;;;;;;2.58;100.00;101475.78;5020291;28;20034;-75
2022/12/02 08:43:22;;;;;;;29.40;18.40;;;;;;;2.55;100.00;101475.66;5022832;28;20036;-74
2022/12/02 08:45:48;;;;;;;30.58;20.40;;;;;;;2.54;100.00;101486.91;5019082;28;20514;-74
2022/12/02 08:48:13;;;;;;;26.40;17.98;;;;;;;2.58;100.00;101480.97;5022133;28;20120;-74
2022/12/02 08:50:39;;;;;;;26.52;16.58;;;;;;;2.62;100.00;101482.91;5022754;28;20041;-74
2022/12/02 08:53:04;;;;;;;27.15;16.88;;;;;;;2.62;99.75;101488.13;5021204;28;20025;-74
2022/12/02 08:55:30;;;;;;;42.25;23.83;;;;;;;2.67;100.00;101487.41;5026418;28;20056;-74
2022/12/02 08:57:55;;;;;;;48.92;25.67;;;;;;;2.77;100.00;101486.94;5017453;28;20084;-75
2022/12/02 09:00:21;;;;;;;45.47;25.52;;;;;;;2.91;100.00;101490.09;5025380;28;20472;-74
2022/12/02 09:02:46;;;;;;;47.63;26.45;;;;;;;2.95;100.00;101487.69;5023025;28;20067;-74
2022/12/02 09:05:12;;;;;;;35.55;21.52;;;;;;;2.90;99.36;101486.63;5025175;28;20044;-74
2022/12/02 09:07:37;;;;;;;29.63;18.48;;;;;;;2.85;98.45;101491.63;5020906;28;20033;-74
2022/12/02 09:10:05;;;;;;;27.13;17.98;;;;;;;2.92;98.57;101490.19;5021443;28;20041;-75
2022/12/02 09:12:30;;;;;;;30.95;19.63;;;;;;;2.94;98.23;101495.47;5021390;28;20515;-74
2022/12/02 09:14:56;;;;;;;29.33;18.77;;;;;;;2.91;97.79;101485.81;5026308;28;20061;-74
2022/12/02 09:17:21;;;;;;;28.40;18.83;;;;;;;2.93;97.64;101480.63;5027491;28;20067;-75
2022/12/02 09:19:46;;;;;;;27.73;18.75;;;;;;;2.91;97.42;101488.41;5026698;28;20038;-75
2022/12/02 09:22:12;;;;;;;28.85;18.33;;;;;;;2.90;97.35;101484.00;5023031;28;20447;-74
2022/12/02 09:24:37;;;;;;;27.20;17.65;;;;;;;2.94;97.11;101480.72;5022894;28;20385;-74
2022/12/02 09:27:02;;;;;;;23.70;15.48;;;;;;;2.94;97.44;101487.66;5026259;28;20522;-75
2022/12/02 09:29:28;;;;;;;28.00;17.17;;;;;;;2.92;96.82;101487.56;5023639;28;20571;-74
2022/12/02 09:31:53;;;;;;;24.65;17.95;;;;;;;2.93;97.02;101478.03;5020476;28;20026;-75
2022/12/02 09:34:18;;;;;;;27.05;17.05;;;;;;;2.93;97.19;101480.63;5027532;28;20522;-75
2022/12/02 09:36:44;;;;;;;26.25;17.20;;;;;;;2.89;96.84;101479.63;5023034;28;20427;-74
2022/12/02 09:39:09;;;;;;;25.88;15.57;;;;;;;2.93;96.65;101486.72;5027888;28;20030;-75
2022/12/02 09:41:36;;;;;;;25.10;16.77;;;;;;;2.88;96.86;101472.63;5025357;28;20542;-74
2022/12/02 09:44:01;;;;;;;23.25;15.90;;;;;;;2.88;96.88;101477.84;5022887;28;20042;-74
2022/12/02 09:46:26;;;;;;;28.38;17.80;;;;;;;2.87;96.20;101467.38;5027150;28;20036;-75
2022/12/02 09:48:52;;;;;;;25.95;16.38;;;;;;;2.89;96.34;101464.00;5027731;28;20022;-75
2022/12/02 09:51:18;;;;;;;22.83;16.02;;;;;;;2.95;96.56;101465.94;5027078;28;20044;-74
2022/12/02 09:53:43;;;;;;;27.17;17.50;;;;;;;2.95;96.33;101464.22;5024171;28;20107;-74
2022/12/02 09:56:15;;;;;;;25.50;16.52;;;;;;;2.98;96.43;101458.25;5024129;28;20195;-75
2022/12/02 09:58:41;;;;;;;26.38;16.52;;;;;;;2.99;95.72;101470.47;5022858;28;20145;-74
2022/12/02 10:01:11;;;;;;;26.30;17.02;;;;;;;3.05;95.76;101453.31;5027076;28;20120;-75
2022/12/02 10:03:37;;;;;;;22.90;15.40;;;;;;;3.13;95.28;101461.44;5032347;28;20029;-75
2022/12/02 10:06:06;;;;;;;24.50;15.95;;;;;;;3.09;94.41;101451.72;5025619;28;20037;-75
2022/12/02 10:08:32;;;;;;;24.45;14.70;;;;;;;3.03;93.49;101459.31;5026647;28;20036;-74
2022/12/02 10:10:59;;;;;;;21.73;15.15;;;;;;;3.00;93.55;101467.03;5040789;23;20049;-77
2022/12/02 10:13:25;;;;;;;23.10;14.65;;;;;;;3.00;93.65;101459.19;5028148;28;20037;-77
2022/12/02 10:15:52;;;;;;;25.48;16.15;;;;;;;3.02;94.07;101457.53;5025753;28;20038;-77
2022/12/02 10:18:24;;;;;;;23.13;14.60;;;;;;;3.00;93.89;101454.88;5024458;28;20052;-76
2022/12/02 10:20:50;;;;;;;27.48;16.90;;;;;;;2.94;93.77;101444.22;5025268;28;20029;-77
2022/12/02 10:23:26;;;;;;;24.05;14.70;;;;;;;2.96;94.33;101441.63;5025602;28;20389;-77
2022/12/02 10:26:08;;;;;;;25.65;15.23;;;;;;;2.96;93.98;101439.03;5032499;28;20079;-76
2022/12/02 10:28:36;;;;;;;24.08;15.07;;;;;;;2.97;94.19;101439.09;5028886;28;20037;-77
2022/12/02 10:31:12;;;;;;;22.60;13.98;;;;;;;2.96;94.55;101428.59;5022299;28;20066;-77
2022/12/02 10:33:49;;;;;;;26.23;14.93;;;;;;;2.96;93.92;101432.13;5030818;28;20026;-76
2022/12/02 10:36:28;;;;;;;22.67;14.48;;;;;;;2.97;94.00;101433.00;5027807;28;20037;-76
2022/12/02 10:38:53;;;;;;;25.60;15.63;;;;;;;3.00;94.29;101439.22;5026211;28;20511;-77
2022/12/02 10:41:28;;;;;;;22.58;15.05;;;;;;;3.02;93.56;101434.06;5024444;28;20049;-76
2022/12/02 10:44:02;;;;;;;25.10;16.05;;;;;;;3.00;93.38;101433.13;5024786;28;20045;-77
2022/12/02 10:46:29;;;;;;;23.10;14.70;;;;;;;2.97;93.71;101430.41;5023125;28;20484;-76
2022/12/02 10:48:54;;;;;;;22.85;14.20;;;;;;;2.98;93.35;101433.03;5025434;28;20080;-76
2022/12/02 10:51:20;;;;;;;24.60;14.35;;;;;;;3.03;93.68;101428.91;5025204;28;20484;-76
2022/12/02 10:53:55;;;;;;;22.55;13.82;;;;;;;3.04;93.16;101433.31;5023351;28;20090;-77
2022/12/02 10:56:22;;;;;;;25.27;15.13;;;;;;;2.98;92.59;101429.56;5026277;28;20037;-77
2022/12/02 10:58:50;;;;;;;21.90;14.05;;;;;;;2.97;93.27;101431.28;5030601;28;20053;-77
2022/12/02 11:01:18;;;;;;;23.63;15.20;;;;;;;2.96;92.61;101421.69;5016765;28;20038;-77
2022/12/02 11:03:43;;;;;;;22.02;14.38;;;;;;;2.91;92.52;101425.84;5028143;28;20045;-77
2022/12/02 11:06:18;;;;;;;26.33;16.27;;;;;;;2.95;93.29;101419.00;5022615;28;20451;-77
2022/12/02 11:08:46;;;;;;;21.02;13.77;;;;;;;2.96;92.82;101421.69;5025897;28;20033;-76
2022/12/02 11:11:14;;;;;;;23.23;15.02;;;;;;;2.94;92.81;101415.53;5019540;28;20485;-77
2022/12/02 11:13:48;;;;;;;20.38;13.40;;;;;;;2.86;92.15;101419.56;5022576;28;20037;-77
2022/12/02 11:16:25;;;;;;;20.00;12.50;;;;;;;2.87;92.80;101418.72;5023507;28;20038;-77
2022/12/02 11:19:07;;;;;;;17.33;11.45;;;;;;;2.92;93.22;101418.91;5029556;28;20045;-76
2022/12/02 11:21:38;;;;;;;20.00;12.68;;;;;;;2.95;93.24;101419.00;5026779;28;20400;-76
2022/12/02 11:24:25;;;;;;;20.05;12.18;;;;;;;2.97;93.20;101423.47;5028873;28;20043;-76
2022/12/02 11:27:02;;;;;;;23.40;14.77;;;;;;;2.96;93.38;101410.34;5028200;28;20125;-76
2022/12/02 11:29:36;;;;;;;23.05;14.00;;;;;;;2.87;92.93;101415.22;5029020;28;20037;-77
2022/12/02 11:32:20;;;;;;;25.50;16.40;;;;;;;2.93;93.90;101418.06;5028082;28;20048;-77